Time;durP1;ratioP1;P1;durP2;ratioP2;P2;SDS_P1;SDS_P2;PMS_P1;PMS_P2;Temp;Humidity;BMP_temperature;BMP_pressure;BME280_temperature;BME280_humidity;BME280_pressure;Samples;Min_cycle;Max_cycle;Signal;HPM_P1;HPM_P2
2021/01/18 00:00:13;;;;;;;43.30;20.15;;;;;;;0.32;100.00;101385.19;4948406;28;20475;-79
2021/01/18 00:02:39;;;;;;;43.25;20.30;;;;;;;0.45;100.00;101388.06;4920861;28;20045;-80
2021/01/18 00:05:06;;;;;;;45.60;21.98;;;;;;;0.58;100.00;101397.31;4952521;28;20027;-78
2021/01/18 00:07:48;;;;;;;42.28;20.15;;;;;;;0.42;100.00;101395.75;4919033;28;20032;-78
2021/01/18 00:10:22;;;;;;;44.63;20.42;;;;;;;0.41;100.00;101394.16;4928867;29;20044;-79
2021/01/18 00:12:53;;;;;;;44.00;21.33;;;;;;;0.42;100.00;101401.06;4944055;28;20161;-78
2021/01/18 00:15:21;;;;;;;46.72;21.05;;;;;;;0.45;100.00;101401.31;4930467;29;20034;-79
2021/01/18 00:17:47;;;;;;;45.63;21.00;;;;;;;0.52;100.00;101395.75;4944555;29;20675;-79
2021/01/18 00:20:14;;;;;;;45.67;21.20;;;;;;;0.45;100.00;101392.56;4960477;28;20035;-79
2021/01/18 00:22:41;;;;;;;42.95;20.58;;;;;;;0.49;100.00;101390.97;4973824;28;20045;-78
2021/01/18 00:25:11;;;;;;;46.55;20.30;;;;;;;0.44;100.00;101391.00;4954252;28;20043;-78
2021/01/18 00:27:39;;;;;;;45.00;20.67;;;;;;;0.34;100.00;101385.72;4949590;28;20118;-79
2021/01/18 00:30:21;;;;;;;43.28;19.92;;;;;;;0.45;100.00;101390.72;4926106;29;20034;-80
2021/01/18 00:32:47;;;;;;;45.22;20.27;;;;;;;0.73;100.00;101384.81;4950417;28;20133;-79
2021/01/18 00:35:15;;;;;;;46.53;21.38;;;;;;;0.43;100.00;101387.53;4937877;28;20035;-78
2021/01/18 00:37:46;;;;;;;43.05;20.67;;;;;;;0.60;100.00;101371.34;4938478;28;20031;-79
2021/01/18 00:40:17;;;;;;;42.83;20.05;;;;;;;0.58;100.00;101378.78;4961645;28;20047;-79
2021/01/18 00:42:44;;;;;;;43.90;19.88;;;;;;;0.53;100.00;101376.13;4942684;29;20059;-79
2021/01/18 00:45:12;;;;;;;46.10;21.42;;;;;;;0.64;100.00;101375.81;4956978;28;20038;-78
2021/01/18 00:47:42;;;;;;;50.08;22.20;;;;;;;0.68;100.00;101384.00;4923004;29;20038;-79
2021/01/18 00:50:10;;;;;;;46.30;20.83;;;;;;;0.63;100.00;101379.53;4944308;29;20039;-79
2021/01/18 00:52:35;;;;;;;46.28;22.10;;;;;;;0.75;100.00;101379.22;4962469;28;20033;-78
2021/01/18 00:55:02;;;;;;;51.05;22.30;;;;;;;0.54;100.00;101375.06;4942837;29;20023;-79
2021/01/18 00:57:41;;;;;;;44.50;21.48;;;;;;;0.64;100.00;101364.44;4948207;28;20035;-79
2021/01/18 01:00:13;;;;;;;47.88;21.15;;;;;;;0.70;100.00;101371.28;4927558;29;20027;-79
2021/01/18 01:02:41;;;;;;;50.45;22.88;;;;;;;0.68;100.00;101373.41;4950682;28;20039;-79
2021/01/18 01:05:09;;;;;;;47.40;21.70;;;;;;;0.98;100.00;101373.28;4937622;29;20032;-79
2021/01/18 01:07:41;;;;;;;52.22;22.02;;;;;;;0.70;100.00;101373.94;4929783;28;20040;-79
2021/01/18 01:10:15;;;;;;;45.00;21.20;;;;;;;0.51;100.00;101365.00;4943484;29;20106;-79
2021/01/18 01:12:40;;;;;;;49.42;21.65;;;;;;;0.47;100.00;101367.41;4933763;28;20046;-79
2021/01/18 01:15:10;;;;;;;51.75;23.95;;;;;;;0.34;100.00;101372.47;4962612;28;20027;-79
2021/01/18 01:17:40;;;;;;;59.30;27.05;;;;;;;0.59;100.00;101361.78;4929812;29;20045;-79
2021/01/18 01:20:07;;;;;;;63.72;29.95;;;;;;;0.56;100.00;101371.06;4937188;29;20049;-79
2021/01/18 01:22:34;;;;;;;60.17;28.30;;;;;;;0.80;100.00;101372.06;4918208;29;20067;-79
2021/01/18 01:24:59;;;;;;;55.13;25.23;;;;;;;0.60;100.00;101360.75;4959006;28;20035;-79
2021/01/18 01:27:25;;;;;;;53.15;23.35;;;;;;;0.59;100.00;101356.50;4974431;28;20035;-79
2021/01/18 01:29:53;;;;;;;51.72;23.02;;;;;;;0.62;100.00;101350.69;4962391;28;20039;-78
2021/01/18 01:32:39;;;;;;;53.65;23.35;;;;;;;0.78;100.00;101352.97;4956937;28;20514;-79
2021/01/18 01:35:09;;;;;;;49.78;22.02;;;;;;;0.61;100.00;101355.19;4865349;29;20045;-77
2021/01/18 01:37:35;;;;;;;48.70;22.23;;;;;;;0.66;100.00;101349.84;4858126;29;20086;-79
2021/01/18 01:40:01;;;;;;;48.33;21.60;;;;;;;0.69;100.00;101348.50;4871448;29;20052;-79
2021/01/18 01:42:27;;;;;;;49.38;22.52;;;;;;;0.62;100.00;101363.91;4846957;29;20500;-79
2021/01/18 01:44:52;;;;;;;48.65;21.83;;;;;;;0.51;100.00;101351.75;4863372;29;20523;-78
2021/01/18 01:47:46;;;;;;;52.88;22.95;;;;;;;0.51;100.00;101355.19;4854028;29;20077;-79
2021/01/18 01:50:33;;;;;;;54.47;23.27;;;;;;;0.63;100.00;101347.75;4856219;29;20637;-79
2021/01/18 01:53:23;;;;;;;53.65;23.05;;;;;;;0.66;100.00;101349.03;4868428;29;20522;-79
2021/01/18 01:55:50;;;;;;;56.72;23.08;;;;;;;0.80;100.00;101360.66;4863926;29;20041;-79
2021/01/18 01:58:36;;;;;;;56.15;24.58;;;;;;;0.96;100.00;101345.47;4863488;29;20043;-79
2021/01/18 02:01:04;;;;;;;52.85;23.65;;;;;;;0.84;100.00;101345.78;4854398;29;20041;-79
2021/01/18 02:03:45;;;;;;;58.25;25.15;;;;;;;0.90;100.00;101340.19;4862298;29;20052;-79
2021/01/18 02:06:10;;;;;;;52.80;24.05;;;;;;;0.78;100.00;101330.97;4861355;29;20052;-79
2021/01/18 02:08:37;;;;;;;54.72;24.17;;;;;;;0.58;100.00;101331.09;4866334;29;20047;-79
2021/01/18 02:11:23;;;;;;;51.17;23.17;;;;;;;0.74;100.00;101335.22;4867705;29;20033;-80
2021/01/18 02:13:58;;;;;;;53.35;22.75;;;;;;;0.81;100.00;101335.75;4878672;29;20056;-79
2021/01/18 02:16:29;;;;;;;55.85;23.17;;;;;;;1.04;100.00;101327.13;4874722;29;20552;-80
2021/01/18 02:19:01;;;;;;;53.20;23.45;;;;;;;1.00;100.00;101334.06;4890384;29;20096;-78
2021/01/18 02:22:07;;;;;;;56.50;24.10;;;;;;;1.22;100.00;101326.47;4883735;29;20128;-79
2021/01/18 02:25:00;;;;;;;53.75;23.35;;;;;;;0.85;100.00;101336.78;4883810;29;20517;-79
2021/01/18 02:28:02;;;;;;;54.88;21.98;;;;;;;0.66;100.00;101339.25;4890008;29;20075;-79
2021/01/18 02:31:01;;;;;;;57.97;22.65;;;;;;;0.75;100.00;101332.34;4885089;29;20047;-78
2021/01/18 02:34:02;;;;;;;55.72;22.25;;;;;;;0.63;100.00;101328.41;4819275;29;20057;-79
2021/01/18 02:36:43;;;;;;;56.60;23.23;;;;;;;0.91;100.00;101340.97;4826085;29;20046;-81
2021/01/18 02:39:32;;;;;;;59.33;24.52;;;;;;;0.95;100.00;101342.00;4838624;29;20091;-79
2021/01/18 02:42:14;;;;;;;56.17;24.10;;;;;;;0.69;100.00;101343.22;4811521;29;20528;-79
2021/01/18 02:44:40;;;;;;;64.65;24.77;;;;;;;0.82;100.00;101332.81;4810015;29;20555;-79
2021/01/18 02:47:08;;;;;;;58.70;23.77;;;;;;;0.85;100.00;101334.13;4812675;29;20121;-78
2021/01/18 02:49:34;;;;;;;55.67;23.70;;;;;;;0.78;100.00;101328.31;4839492;29;20050;-79
2021/01/18 02:52:12;;;;;;;61.10;24.75;;;;;;;0.93;100.00;101322.94;4862566;29;20438;-79
2021/01/18 02:54:38;;;;;;;58.88;23.35;;;;;;;0.63;100.00;101323.09;4887058;29;20048;-79
2021/01/18 02:57:05;;;;;;;66.30;25.15;;;;;;;0.75;100.00;101312.97;4882111;29;20080;-79
2021/01/18 02:59:31;;;;;;;67.45;24.98;;;;;;;0.84;100.00;101308.69;4884438;29;20520;-79
2021/01/18 03:02:26;;;;;;;64.03;25.05;;;;;;;0.83;100.00;101315.06;4854309;29;20041;-79
2021/01/18 03:05:06;;;;;;;73.40;25.95;;;;;;;0.93;100.00;101321.09;4870837;29;20773;-79
2021/01/18 03:07:39;;;;;;;59.03;24.00;;;;;;;0.91;100.00;101320.56;4862436;29;20076;-79
2021/01/18 03:10:08;;;;;;;62.58;24.45;;;;;;;0.78;100.00;101310.56;4914645;28;20047;-79
2021/01/18 03:12:49;;;;;;;66.28;25.67;;;;;;;0.83;100.00;101304.47;4943977;28;20401;-77
2021/01/18 03:15:15;;;;;;;66.40;24.60;;;;;;;0.94;100.00;101305.97;4937486;28;20441;-78
2021/01/18 03:17:43;;;;;;;69.30;25.67;;;;;;;0.91;100.00;101312.63;4919362;29;20035;-79
2021/01/18 03:20:09;;;;;;;66.95;25.50;;;;;;;0.83;100.00;101312.41;4936741;28;20428;-79
2021/01/18 03:22:35;;;;;;;65.10;25.20;;;;;;;0.99;100.00;101303.28;4930669;29;20042;-79
2021/01/18 03:25:02;;;;;;;71.10;25.42;;;;;;;0.87;100.00;101308.94;4925091;28;20045;-79
2021/01/18 03:27:28;;;;;;;68.38;25.70;;;;;;;1.00;100.00;101312.03;4945481;29;20046;-79
2021/01/18 03:29:54;;;;;;;69.15;25.30;;;;;;;1.12;100.00;101308.00;4922101;29;20028;-79
2021/01/18 03:32:20;;;;;;;67.15;24.90;;;;;;;1.00;100.00;101302.25;4948279;28;20037;-79
2021/01/18 03:34:45;;;;;;;70.18;25.90;;;;;;;0.91;100.00;101309.97;4925708;29;20103;-78
2021/01/18 03:37:11;;;;;;;70.10;26.20;;;;;;;1.13;100.00;101306.91;4957191;28;20035;-79
2021/01/18 03:39:36;;;;;;;74.05;25.90;;;;;;;1.04;100.00;101297.97;4935722;29;20034;-79
2021/01/18 03:42:02;;;;;;;71.57;25.95;;;;;;;1.08;100.00;101300.88;4943276;28;20094;-79
2021/01/18 03:44:27;;;;;;;71.93;26.38;;;;;;;1.09;100.00;101299.78;4935768;29;20408;-78
2021/01/18 03:46:53;;;;;;;78.03;27.23;;;;;;;1.24;100.00;101302.34;4943486;29;20657;-79
2021/01/18 03:49:19;;;;;;;90.13;26.92;;;;;;;1.18;100.00;101303.44;4960966;28;20608;-79
2021/01/18 03:51:44;;;;;;;80.30;28.10;;;;;;;1.19;100.00;101300.50;4948078;29;20027;-79
2021/01/18 03:54:10;;;;;;;80.30;27.42;;;;;;;1.05;100.00;101302.19;4945326;29;20058;-79
2021/01/18 03:56:42;;;;;;;81.43;26.67;;;;;;;1.02;100.00;101300.09;4945017;29;20488;-80
2021/01/18 03:59:07;;;;;;;83.85;25.98;;;;;;;1.14;100.00;101294.47;4950706;28;20046;-79
2021/01/18 04:01:40;;;;;;;80.90;25.98;;;;;;;1.02;100.00;101307.25;4928896;29;20036;-79
2021/01/18 04:04:06;;;;;;;82.65;27.50;;;;;;;1.28;100.00;101308.69;4948227;29;20050;-79
2021/01/18 04:06:36;;;;;;;75.47;27.48;;;;;;;1.36;100.00;101294.81;4954727;28;20031;-79
2021/01/18 04:09:04;;;;;;;86.70;29.02;;;;;;;1.20;100.00;101296.00;4942824;29;20073;-78
2021/01/18 04:11:30;;;;;;;86.15;28.63;;;;;;;1.28;100.00;101293.53;4912052;29;20110;-80
2021/01/18 04:13:56;;;;;;;81.65;27.30;;;;;;;1.26;100.00;101300.97;4944481;29;20054;-79
2021/01/18 04:16:22;;;;;;;87.68;27.38;;;;;;;1.38;100.00;101301.44;4938894;28;20035;-79
2021/01/18 04:18:47;;;;;;;84.15;27.60;;;;;;;1.38;100.00;101293.47;4945347;29;20039;-79
2021/01/18 04:21:15;;;;;;;85.60;27.95;;;;;;;1.36;100.00;101292.97;4929872;28;20035;-79
2021/01/18 04:23:41;;;;;;;84.38;27.58;;;;;;;1.45;100.00;101288.63;4950055;28;20042;-79
2021/01/18 04:26:06;;;;;;;86.07;28.40;;;;;;;1.66;100.00;101289.25;4934048;29;20119;-79
2021/01/18 04:28:32;;;;;;;81.85;28.17;;;;;;;1.49;100.00;101292.31;4938532;29;20036;-79
2021/01/18 04:30:57;;;;;;;89.10;28.73;;;;;;;1.51;100.00;101290.16;4952999;29;20031;-79
2021/01/18 04:33:25;;;;;;;81.05;26.42;;;;;;;1.45;100.00;101287.84;4928710;28;20455;-81
2021/01/18 04:35:51;;;;;;;95.53;27.85;;;;;;;1.43;100.00;101274.84;4942457;29;20743;-79
2021/01/18 04:38:16;;;;;;;90.15;28.40;;;;;;;1.71;100.00;101284.69;4943175;28;20042;-79
2021/01/18 04:40:42;;;;;;;88.78;27.77;;;;;;;1.54;100.00;101279.03;4948056;29;20154;-79
2021/01/18 04:43:30;;;;;;;86.80;26.80;;;;;;;1.34;100.00;101279.19;4950116;29;20039;-79
2021/01/18 04:45:56;;;;;;;84.07;27.58;;;;;;;1.46;100.00;101282.28;4904283;29;20108;-79
2021/01/18 04:48:22;;;;;;;102.35;29.25;;;;;;;1.63;100.00;101273.88;4909587;29;20341;-79
2021/01/18 04:50:48;;;;;;;84.65;27.80;;;;;;;1.48;100.00;101274.03;4882293;29;20051;-79
2021/01/18 04:53:15;;;;;;;93.47;28.20;;;;;;;1.59;100.00;101278.97;4909101;29;20540;-79
2021/01/18 04:55:44;;;;;;;95.53;27.52;;;;;;;1.78;100.00;101273.75;4915136;29;20030;-77
2021/01/18 04:58:09;;;;;;;88.18;27.60;;;;;;;1.69;100.00;101281.53;4904888;29;20595;-78
2021/01/18 05:00:42;;;;;;;93.18;27.25;;;;;;;1.75;100.00;101277.75;4870984;29;20037;-78
2021/01/18 05:03:09;;;;;;;82.07;27.50;;;;;;;1.86;100.00;101273.13;4911579;29;20040;-78
2021/01/18 05:06:06;;;;;;;91.15;28.23;;;;;;;1.88;100.00;101275.53;4907752;29;20052;-80
2021/01/18 05:08:35;;;;;;;81.32;26.35;;;;;;;1.78;100.00;101273.75;4909012;29;20085;-79
2021/01/18 05:11:01;;;;;;;85.13;26.90;;;;;;;1.89;100.00;101287.72;4895403;29;20043;-79
2021/01/18 05:13:30;;;;;;;88.93;26.80;;;;;;;1.69;100.00;101278.88;4912901;29;20099;-79
2021/01/18 05:15:59;;;;;;;85.72;25.70;;;;;;;1.70;100.00;101283.09;4898558;29;20043;-79
2021/01/18 05:18:33;;;;;;;91.65;25.75;;;;;;;1.73;100.00;101271.13;4884796;29;20044;-79
2021/01/18 05:21:03;;;;;;;86.00;25.55;;;;;;;1.69;100.00;101275.41;4907481;29;20051;-79
2021/01/18 05:23:28;;;;;;;86.38;25.77;;;;;;;1.83;100.00;101279.00;4936632;28;20047;-77
2021/01/18 05:26:27;;;;;;;86.30;27.40;;;;;;;1.71;100.00;101279.38;4928635;29;20020;-78
2021/01/18 05:28:55;;;;;;;83.00;26.52;;;;;;;1.60;100.00;101279.75;4943034;28;20055;-79
2021/01/18 05:31:27;;;;;;;95.35;26.92;;;;;;;1.67;100.00;101283.66;4946236;28;20089;-79
2021/01/18 05:33:57;;;;;;;85.60;27.50;;;;;;;1.63;100.00;101295.91;4945595;29;20027;-78
2021/01/18 05:36:39;;;;;;;87.22;27.35;;;;;;;1.53;100.00;101293.34;4938338;28;20038;-79
2021/01/18 05:39:39;;;;;;;80.18;27.30;;;;;;;1.57;100.00;101283.75;4938044;29;20038;-79
2021/01/18 05:42:16;;;;;;;81.05;27.20;;;;;;;1.50;100.00;101296.56;4964096;28;20042;-80
2021/01/18 05:44:42;;;;;;;84.90;25.90;;;;;;;1.65;100.00;101295.63;4930082;29;20043;-78
2021/01/18 05:47:10;;;;;;;83.97;26.77;;;;;;;1.63;100.00;101287.94;4949467;28;20094;-79
2021/01/18 05:49:49;;;;;;;78.97;25.98;;;;;;;1.64;100.00;101288.75;4955606;28;20113;-79
2021/01/18 05:52:27;;;;;;;79.95;25.08;;;;;;;1.69;100.00;101273.56;4927507;29;20040;-78
2021/01/18 05:55:15;;;;;;;87.68;27.40;;;;;;;1.64;100.00;101265.66;4943495;28;20035;-79
2021/01/18 05:58:01;;;;;;;89.07;27.45;;;;;;;1.55;100.00;101266.53;4957458;28;20141;-78
2021/01/18 06:00:34;;;;;;;88.65;28.83;;;;;;;1.59;100.00;101262.25;4954486;28;20053;-78
2021/01/18 06:03:08;;;;;;;85.10;26.83;;;;;;;1.57;100.00;101262.53;4964508;28;20039;-78
2021/01/18 06:05:35;;;;;;;86.85;26.27;;;;;;;1.58;100.00;101268.63;4941165;28;20031;-77
2021/01/18 06:08:12;;;;;;;70.88;25.33;;;;;;;1.51;100.00;101284.88;4933804;28;20451;-79
2021/01/18 06:10:39;;;;;;;72.07;24.80;;;;;;;1.58;100.00;101272.09;4944899;28;20461;-79
2021/01/18 06:13:17;;;;;;;84.20;26.60;;;;;;;1.50;100.00;101278.00;4942370;28;20078;-79
2021/01/18 06:15:43;;;;;;;84.10;27.80;;;;;;;1.55;100.00;101275.28;4942019;29;20134;-79
2021/01/18 06:18:12;;;;;;;81.78;25.55;;;;;;;1.54;100.00;101276.38;4926767;28;20055;-79
2021/01/18 06:20:38;;;;;;;82.20;25.25;;;;;;;1.54;100.00;101276.38;4946625;28;20084;-79
2021/01/18 06:23:04;;;;;;;74.18;25.08;;;;;;;1.74;100.00;101276.16;4930302;28;20583;-78
2021/01/18 06:25:37;;;;;;;81.20;25.38;;;;;;;1.68;100.00;101282.59;4959873;28;20035;-79
2021/01/18 06:28:24;;;;;;;72.68;23.00;;;;;;;1.63;100.00;101265.91;4925287;28;20039;-79
2021/01/18 06:31:04;;;;;;;65.25;22.83;;;;;;;1.79;100.00;101275.34;4960228;28;20027;-79
2021/01/18 06:33:47;;;;;;;70.93;22.52;;;;;;;1.97;100.00;101273.81;4945557;28;20101;-79
2021/01/18 06:36:20;;;;;;;61.50;20.73;;;;;;;1.92;100.00;101271.22;4958977;28;20034;-79
2021/01/18 06:38:58;;;;;;;66.07;20.92;;;;;;;1.96;100.00;101282.84;4962208;28;20035;-79
2021/01/18 06:41:35;;;;;;;67.70;20.83;;;;;;;1.98;100.00;101292.13;4923668;28;20514;-79
2021/01/18 06:44:03;;;;;;;68.93;21.30;;;;;;;1.95;100.00;101294.56;4953283;28;20035;-79
2021/01/18 06:46:33;;;;;;;61.13;21.75;;;;;;;2.09;100.00;101293.59;4921102;29;20038;-77
2021/01/18 06:48:59;;;;;;;78.07;23.03;;;;;;;1.98;100.00;101292.13;4916769;29;20031;-77
2021/01/18 06:51:27;;;;;;;63.33;20.80;;;;;;;1.99;100.00;101298.22;4943392;28;20554;-78
2021/01/18 06:53:55;;;;;;;64.10;20.50;;;;;;;1.96;100.00;101301.44;4944168;28;20031;-77
2021/01/18 06:56:45;;;;;;;64.15;19.80;;;;;;;1.96;100.00;101310.19;4940093;28;20042;-78
2021/01/18 06:59:23;;;;;;;60.13;19.08;;;;;;;1.94;100.00;101303.56;4928621;28;20031;-78
2021/01/18 07:02:05;;;;;;;62.28;19.25;;;;;;;2.11;100.00;101310.03;4939675;28;20035;-79
2021/01/18 07:04:43;;;;;;;63.85;19.60;;;;;;;2.04;100.00;101306.94;4948982;28;20542;-78
2021/01/18 07:07:22;;;;;;;56.08;19.23;;;;;;;1.99;100.00;101303.53;4958591;28;20035;-78
2021/01/18 07:09:55;;;;;;;55.92;19.67;;;;;;;1.96;100.00;101304.88;4953201;28;20035;-78
2021/01/18 07:12:24;;;;;;;61.10;20.00;;;;;;;1.95;100.00;101292.69;4926589;28;20038;-77
2021/01/18 07:15:00;;;;;;;56.80;18.67;;;;;;;2.09;100.00;101296.25;4947618;28;20031;-77
2021/01/18 07:17:44;;;;;;;55.97;18.92;;;;;;;2.09;100.00;101298.91;4925520;28;20063;-77
2021/01/18 07:20:20;;;;;;;54.92;17.77;;;;;;;2.24;100.00;101290.00;4956232;28;20034;-78
2021/01/18 07:23:07;;;;;;;55.63;17.80;;;;;;;2.25;100.00;101287.03;4940430;28;20066;-77
2021/01/18 07:25:40;;;;;;;56.13;18.15;;;;;;;2.27;100.00;101290.22;4961873;28;20549;-77
2021/01/18 07:28:26;;;;;;;54.97;18.25;;;;;;;2.32;100.00;101294.69;4945623;28;20188;-77
2021/01/18 07:30:54;;;;;;;48.63;16.70;;;;;;;2.42;100.00;101298.00;4869331;29;20165;-78
2021/01/18 07:33:20;;;;;;;53.70;17.02;;;;;;;2.52;100.00;101307.72;4865937;29;20575;-77
2021/01/18 07:35:47;;;;;;;51.45;16.23;;;;;;;2.52;100.00;101300.53;4856183;29;20123;-78
2021/01/18 07:38:25;;;;;;;51.17;15.00;;;;;;;2.75;100.00;101312.19;4865960;29;20094;-77
2021/01/18 07:41:06;;;;;;;51.25;14.85;;;;;;;2.55;100.00;101299.19;4863978;29;20124;-78
2021/01/18 07:43:36;;;;;;;51.40;14.70;;;;;;;2.62;100.00;101302.28;4867626;29;20049;-78
2021/01/18 07:46:23;;;;;;;49.38;15.10;;;;;;;2.56;100.00;101298.88;4862459;29;20044;-78
2021/01/18 07:48:49;;;;;;;49.88;15.27;;;;;;;2.71;100.00;101303.19;4858238;29;20037;-77
2021/01/18 07:51:22;;;;;;;54.92;14.43;;;;;;;2.52;100.00;101297.88;4862615;29;20069;-79
2021/01/18 07:53:49;;;;;;;45.22;15.45;;;;;;;2.47;100.00;101284.66;4865769;29;20060;-78
2021/01/18 07:56:27;;;;;;;54.53;14.15;;;;;;;2.56;100.00;101298.09;4879047;29;20037;-77
2021/01/18 07:58:59;;;;;;;52.97;14.95;;;;;;;2.49;100.00;101287.81;4867050;29;20077;-77
2021/01/18 08:01:37;;;;;;;42.22;14.63;;;;;;;2.57;100.00;101283.75;4863533;29;20180;-77
2021/01/18 08:04:23;;;;;;;45.08;14.60;;;;;;;2.61;100.00;101282.09;4863600;29;20072;-77
2021/01/18 08:07:02;;;;;;;41.55;13.95;;;;;;;2.56;100.00;101288.25;4865559;29;20047;-78
2021/01/18 08:09:28;;;;;;;42.03;13.82;;;;;;;2.66;100.00;101282.03;4940790;28;20046;-78
2021/01/18 08:12:32;;;;;;;44.80;14.90;;;;;;;2.73;100.00;101283.25;4927982;28;20035;-76
2021/01/18 08:15:05;;;;;;;45.60;13.13;;;;;;;2.75;100.00;101274.97;4954356;28;20046;-77
2021/01/18 08:17:31;;;;;;;45.20;14.00;;;;;;;2.79;100.00;101289.28;4936437;28;20492;-78
2021/01/18 08:20:11;;;;;;;42.63;13.70;;;;;;;2.98;100.00;101282.09;4919495;28;20042;-77
2021/01/18 08:22:36;;;;;;;45.30;13.05;;;;;;;2.92;100.00;101283.25;4941590;28;20552;-78
2021/01/18 08:25:04;;;;;;;43.97;12.68;;;;;;;2.95;100.00;101274.69;4939701;28;20122;-78
2021/01/18 08:27:54;;;;;;;41.13;13.13;;;;;;;3.01;100.00;101278.06;4925031;29;20125;-78
2021/01/18 08:30:34;;;;;;;46.33;13.73;;;;;;;3.00;100.00;101266.63;4958080;28;20046;-78
2021/01/18 08:33:02;;;;;;;45.38;14.10;;;;;;;2.95;100.00;101269.38;4939415;28;20039;-78
2021/01/18 08:35:31;;;;;;;38.17;13.73;;;;;;;3.13;100.00;101265.13;4940824;28;20059;-78
2021/01/18 08:38:00;;;;;;;44.85;14.57;;;;;;;3.15;100.00;101262.97;4925763;28;20034;-78
2021/01/18 08:40:38;;;;;;;44.53;14.05;;;;;;;3.20;100.00;101261.00;4938925;28;20043;-78
2021/01/18 08:43:04;;;;;;;46.85;14.13;;;;;;;3.31;100.00;101259.75;4953949;28;20450;-78
2021/01/18 08:45:36;;;;;;;51.83;14.20;;;;;;;3.14;100.00;101264.81;4960949;28;20043;-78
2021/01/18 08:48:05;;;;;;;42.83;13.00;;;;;;;3.32;100.00;101258.69;4938476;28;21070;-78
2021/01/18 08:50:43;;;;;;;39.50;13.60;;;;;;;3.35;100.00;101255.44;4942451;28;20027;-78
2021/01/18 08:53:30;;;;;;;45.13;13.13;;;;;;;3.35;100.00;101244.78;4955946;28;20035;-78
2021/01/18 08:56:09;;;;;;;40.95;12.02;;;;;;;3.16;100.00;101243.25;4940041;28;20477;-78
2021/01/18 08:58:39;;;;;;;35.40;11.20;;;;;;;3.23;100.00;101238.38;4925134;28;20503;-79
2021/01/18 09:01:13;;;;;;;40.17;12.33;;;;;;;3.33;100.00;101236.31;4936597;28;20055;-78
2021/01/18 09:03:39;;;;;;;34.60;11.90;;;;;;;3.38;100.00;101233.59;4942928;28;20039;-79
2021/01/18 09:06:10;;;;;;;40.08;12.40;;;;;;;3.44;100.00;101232.41;4954189;28;20097;-79
2021/01/18 09:08:38;;;;;;;48.28;12.50;;;;;;;3.23;100.00;101227.72;4929383;29;20455;-79
2021/01/18 09:11:07;;;;;;;49.00;12.52;;;;;;;3.39;100.00;101237.00;4942995;28;20043;-78
2021/01/18 09:13:35;;;;;;;44.17;13.43;;;;;;;3.45;100.00;101236.66;4928723;28;20082;-77
2021/01/18 09:16:10;;;;;;;51.38;13.65;;;;;;;3.41;100.00;101229.53;4935636;28;20062;-78
2021/01/18 09:18:39;;;;;;;49.95;13.80;;;;;;;3.47;100.00;101231.03;4924004;28;20050;-78
2021/01/18 09:21:28;;;;;;;58.55;14.27;;;;;;;3.52;100.00;101229.06;4931883;28;20035;-78
2021/01/18 09:23:54;;;;;;;55.25;13.45;;;;;;;3.62;100.00;101228.88;4914256;28;20051;-78
2021/01/18 09:26:20;;;;;;;55.10;14.30;;;;;;;3.62;100.00;101230.75;4913988;28;20603;-78
2021/01/18 09:28:53;;;;;;;68.65;15.38;;;;;;;3.53;100.00;101233.31;4928019;23;20165;-78
2021/01/18 09:31:19;;;;;;;58.15;14.85;;;;;;;3.59;100.00;101231.34;4978400;28;20122;-79
2021/01/18 09:33:48;;;;;;;65.72;16.02;;;;;;;3.55;100.00;101233.81;4990525;28;20038;-80
2021/01/18 09:36:19;;;;;;;72.47;14.90;;;;;;;3.52;100.00;101234.38;4978834;28;20031;-79
2021/01/18 09:38:46;;;;;;;68.60;15.98;;;;;;;3.65;100.00;101228.31;4988336;28;20117;-78
2021/01/18 09:41:16;;;;;;;63.05;15.30;;;;;;;3.72;100.00;101230.56;4976291;28;20076;-79
2021/01/18 09:43:43;;;;;;;70.40;16.25;;;;;;;3.72;100.00;101229.81;4985812;28;20095;-78
2021/01/18 09:46:09;;;;;;;67.95;16.40;;;;;;;3.83;100.00;101226.66;4987101;28;20045;-78
2021/01/18 09:48:35;;;;;;;69.40;16.65;;;;;;;3.71;100.00;101233.53;4974343;28;20050;-78
2021/01/18 09:51:07;;;;;;;64.18;17.27;;;;;;;3.79;100.00;101230.19;4963472;28;20039;-76
2021/01/18 09:53:34;;;;;;;63.30;16.38;;;;;;;3.87;100.00;101232.94;4990428;28;20030;-78
2021/01/18 09:56:02;;;;;;;72.60;16.45;;;;;;;3.80;100.00;101226.44;4958591;28;20031;-77
2021/01/18 09:58:54;;;;;;;64.00;17.27;;;;;;;3.89;100.00;101230.00;4973999;28;20674;-77
2021/01/18 10:01:25;;;;;;;61.13;15.77;;;;;;;3.91;100.00;101222.50;4967821;28;20049;-77
2021/01/18 10:03:57;;;;;;;70.35;16.70;;;;;;;4.08;100.00;101223.50;4952634;28;20053;-78
2021/01/18 10:06:28;;;;;;;73.25;17.33;;;;;;;4.00;100.00;101220.72;4967894;28;20583;-78
2021/01/18 10:09:12;;;;;;;71.87;16.33;;;;;;;4.00;100.00;101224.19;4974272;28;20034;-78
2021/01/18 10:11:46;;;;;;;68.30;16.45;;;;;;;4.09;100.00;101210.94;4969423;28;20057;-79
2021/01/18 10:14:19;;;;;;;73.35;16.42;;;;;;;4.16;100.00;101219.34;4974927;28;20172;-79
2021/01/18 10:17:03;;;;;;;58.78;16.05;;;;;;;4.03;100.00;101220.13;4985804;28;20503;-79
2021/01/18 10:19:29;;;;;;;58.33;14.95;;;;;;;4.13;100.00;101214.59;4978765;28;20136;-76
2021/01/18 10:21:55;;;;;;;68.18;15.30;;;;;;;4.29;100.00;101211.34;4982238;28;20030;-79
2021/01/18 10:24:30;;;;;;;70.07;15.70;;;;;;;4.20;100.00;101213.09;4986064;28;20462;-79
2021/01/18 10:27:10;;;;;;;53.63;15.20;;;;;;;4.25;100.00;101204.22;4965485;28;20061;-77
2021/01/18 10:29:36;;;;;;;60.10;14.63;;;;;;;4.29;100.00;101203.34;4957193;28;20033;-78
2021/01/18 10:32:08;;;;;;;54.85;14.70;;;;;;;4.28;100.00;101199.06;4957383;28;20049;-79
2021/01/18 10:34:42;;;;;;;57.15;14.90;;;;;;;4.16;100.00;101196.13;4966166;28;20023;-79
2021/01/18 10:37:13;;;;;;;49.00;15.50;;;;;;;4.20;100.00;101193.69;4947073;28;20133;-79
2021/01/18 10:39:45;;;;;;;44.50;13.65;;;;;;;4.33;100.00;101179.53;4966245;28;20049;-79
2021/01/18 10:42:12;;;;;;;39.95;13.65;;;;;;;4.25;100.00;101172.25;4984046;28;20077;-78
2021/01/18 10:44:46;;;;;;;44.67;13.23;;;;;;;4.30;100.00;101170.25;4966569;28;20133;-80
2021/01/18 10:47:12;;;;;;;42.88;14.13;;;;;;;4.34;100.00;101163.22;4952238;28;20042;-80
2021/01/18 10:49:38;;;;;;;53.90;15.18;;;;;;;4.35;100.00;101164.81;4970552;28;20499;-80
2021/01/18 10:52:09;;;;;;;44.45;14.52;;;;;;;4.42;100.00;101154.53;4970716;28;20023;-79
2021/01/18 10:54:35;;;;;;;36.28;12.98;;;;;;;4.34;100.00;101152.56;4969212;28;20045;-79
2021/01/18 10:57:02;;;;;;;40.22;13.82;;;;;;;4.34;100.00;101147.25;4969536;28;20038;-78
2021/01/18 10:59:28;;;;;;;51.95;14.63;;;;;;;4.51;100.00;101138.59;4985633;28;20446;-79
2021/01/18 11:02:14;;;;;;;41.53;13.43;;;;;;;4.26;100.00;101139.94;4975867;28;20647;-80
2021/01/18 11:04:46;;;;;;;38.85;12.88;;;;;;;4.34;100.00;101133.13;4969526;28;20026;-77
2021/01/18 11:07:13;;;;;;;37.55;13.63;;;;;;;4.20;100.00;101127.06;4974140;28;20473;-77
2021/01/18 11:09:39;;;;;;;41.80;11.98;;;;;;;4.15;100.00;101125.28;4969783;28;20129;-76
2021/01/18 11:12:06;;;;;;;35.38;12.57;;;;;;;4.21;100.00;101120.63;4954858;28;20112;-79
2021/01/18 11:14:32;;;;;;;33.17;11.85;;;;;;;4.13;100.00;101111.47;4954559;28;20038;-79
2021/01/18 11:17:04;;;;;;;35.30;12.60;;;;;;;4.22;100.00;101108.91;4973391;28;20031;-79
2021/01/18 11:19:30;;;;;;;31.92;11.32;;;;;;;4.20;100.00;101106.50;4949848;28;20033;-79
2021/01/18 11:21:55;;;;;;;27.70;10.82;;;;;;;4.29;100.00;101102.06;4953811;28;20125;-78
2021/01/18 11:24:21;;;;;;;29.25;11.00;;;;;;;4.30;100.00;101102.81;4970476;28;20038;-78
2021/01/18 11:26:50;;;;;;;27.88;10.30;;;;;;;4.25;100.00;101097.63;4982662;28;20077;-79
2021/01/18 11:29:17;;;;;;;27.88;11.02;;;;;;;4.30;100.00;101092.16;4979700;28;20034;-80
2021/01/18 11:32:08;;;;;;;27.92;11.45;;;;;;;4.39;100.00;101099.13;4949183;28;20423;-79